sensor_id;sensor_type;location;lat;lon;timestamp;temperature;humidity
23562;DHT22;11959;49.418;8.728;2023-12-04T00:00:37;-0.80;99.90
23562;DHT22;11959;49.418;8.728;2023-12-04T00:03:03;-0.80;99.90
23562;DHT22;11959;49.418;8.728;2023-12-04T00:05:29;-0.80;99.90
23562;DHT22;11959;49.418;8.728;2023-12-04T00:07:54;-0.80;99.90
23562;DHT22;11959;49.418;8.728;2023-12-04T00:10:20;-0.90;99.90
23562;DHT22;11959;49.418;8.728;2023-12-04T00:12:46;-0.90;99.90
23562;DHT22;11959;49.418;8.728;2023-12-04T00:15:12;-0.90;99.90
23562;DHT22;11959;49.418;8.728;2023-12-04T00:17:37;-0.90;99.90
23562;DHT22;11959;49.418;8.728;2023-12-04T00:20:08;-0.90;99.90
23562;DHT22;11959;49.418;8.728;2023-12-04T00:22:35;-0.90;99.90
23562;DHT22;11959;49.418;8.728;2023-12-04T00:25:02;-0.90;99.90
23562;DHT22;11959;49.418;8.728;2023-12-04T00:27:28;-1.00;99.90
23562;DHT22;11959;49.418;8.728;2023-12-04T00:29:54;-0.90;99.90
23562;DHT22;11959;49.418;8.728;2023-12-04T00:32:20;-1.00;99.90
23562;DHT22;11959;49.418;8.728;2023-12-04T00:34:46;-1.00;99.90
23562;DHT22;11959;49.418;8.728;2023-12-04T00:37:11;-1.00;99.90
23562;DHT22;11959;49.418;8.728;2023-12-04T00:39:37;-1.00;99.90
23562;DHT22;11959;49.418;8.728;2023-12-04T00:42:03;-1.00;99.90
23562;DHT22;11959;49.418;8.728;2023-12-04T00:44:28;-1.00;99.90
23562;DHT22;11959;49.418;8.728;2023-12-04T00:46:54;-1.00;99.90
23562;DHT22;11959;49.418;8.728;2023-12-04T00:49:19;-1.00;99.90
23562;DHT22;11959;49.418;8.728;2023-12-04T00:51:45;-1.00;99.90
23562;DHT22;11959;49.418;8.728;2023-12-04T00:54:11;-1.00;99.90
23562;DHT22;11959;49.418;8.728;2023-12-04T00:56:40;-1.00;99.90
23562;DHT22;11959;49.418;8.728;2023-12-04T00:59:08;-1.00;99.90
23562;DHT22;11959;49.418;8.728;2023-12-04T01:01:35;-1.00;99.90
23562;DHT22;11959;49.418;8.728;2023-12-04T01:04:01;-1.00;99.90
23562;DHT22;11959;49.418;8.728;2023-12-04T01:06:27;-1.00;99.90
23562;DHT22;11959;49.418;8.728;2023-12-04T01:08:54;-1.00;99.90
23562;DHT22;11959;49.418;8.728;2023-12-04T01:11:20;-1.00;99.90
23562;DHT22;11959;49.418;8.728;2023-12-04T01:13:46;-1.00;99.90
23562;DHT22;11959;49.418;8.728;2023-12-04T01:16:12;-1.00;99.90
23562;DHT22;11959;49.418;8.728;2023-12-04T01:18:37;-1.10;99.90
23562;DHT22;11959;49.418;8.728;2023-12-04T01:21:03;-1.00;99.90
23562;DHT22;11959;49.418;8.728;2023-12-04T01:23:29;-1.00;99.90
23562;DHT22;11959;49.418;8.728;2023-12-04T01:25:54;-1.00;99.90
23562;DHT22;11959;49.418;8.728;2023-12-04T01:28:20;-0.90;99.90
23562;DHT22;11959;49.418;8.728;2023-12-04T01:30:46;-1.00;99.90
23562;DHT22;11959;49.418;8.728;2023-12-04T01:33:11;-0.90;99.90
23562;DHT22;11959;49.418;8.728;2023-12-04T01:35:37;-0.90;99.90
23562;DHT22;11959;49.418;8.728;2023-12-04T01:38:03;-0.90;99.90
23562;DHT22;11959;49.418;8.728;2023-12-04T01:40:28;-0.80;99.90
23562;DHT22;11959;49.418;8.728;2023-12-04T01:42:54;-0.90;99.90
23562;DHT22;11959;49.418;8.728;2023-12-04T01:45:20;-0.90;99.90
23562;DHT22;11959;49.418;8.728;2023-12-04T01:47:46;-0.80;99.90
23562;DHT22;11959;49.418;8.728;2023-12-04T01:50:13;-0.80;99.90
23562;DHT22;11959;49.418;8.728;2023-12-04T01:52:40;-0.80;99.90
23562;DHT22;11959;49.418;8.728;2023-12-04T01:55:08;-0.80;99.90
23562;DHT22;11959;49.418;8.728;2023-12-04T01:57:35;-0.80;99.90
23562;DHT22;11959;49.418;8.728;2023-12-04T02:00:01;-0.90;99.90
23562;DHT22;11959;49.418;8.728;2023-12-04T02:02:29;-0.80;99.90
23562;DHT22;11959;49.418;8.728;2023-12-04T02:04:55;-0.80;99.90
23562;DHT22;11959;49.418;8.728;2023-12-04T02:07:23;-0.80;99.90
23562;DHT22;11959;49.418;8.728;2023-12-04T02:09:49;-0.80;99.90
23562;DHT22;11959;49.418;8.728;2023-12-04T02:12:15;-0.80;99.90
23562;DHT22;11959;49.418;8.728;2023-12-04T02:14:41;-0.80;99.90
23562;DHT22;11959;49.418;8.728;2023-12-04T02:17:08;-0.70;99.90
23562;DHT22;11959;49.418;8.728;2023-12-04T02:19:35;-0.70;99.90
23562;DHT22;11959;49.418;8.728;2023-12-04T02:22:01;-0.70;99.90
23562;DHT22;11959;49.418;8.728;2023-12-04T02:24:27;-0.70;99.90
23562;DHT22;11959;49.418;8.728;2023-12-04T02:26:59;-0.70;99.90
23562;DHT22;11959;49.418;8.728;2023-12-04T02:29:31;-0.70;99.90
23562;DHT22;11959;49.418;8.728;2023-12-04T02:32:03;-0.60;99.90
23562;DHT22;11959;49.418;8.728;2023-12-04T02:34:32;-0.70;99.90
23562;DHT22;11959;49.418;8.728;2023-12-04T02:36:59;-0.70;99.90
23562;DHT22;11959;49.418;8.728;2023-12-04T02:39:26;-0.70;99.90
23562;DHT22;11959;49.418;8.728;2023-12-04T02:41:52;-0.70;99.90
23562;DHT22;11959;49.418;8.728;2023-12-04T02:44:18;-0.70;99.90
23562;DHT22;11959;49.418;8.728;2023-12-04T02:46:44;-0.80;99.90
23562;DHT22;11959;49.418;8.728;2023-12-04T02:49:09;-0.80;99.90
23562;DHT22;11959;49.418;8.728;2023-12-04T02:51:35;-0.80;99.90
23562;DHT22;11959;49.418;8.728;2023-12-04T02:54:01;-0.80;99.90
23562;DHT22;11959;49.418;8.728;2023-12-04T02:56:26;-0.80;99.90
23562;DHT22;11959;49.418;8.728;2023-12-04T02:58:52;-0.80;99.90
23562;DHT22;11959;49.418;8.728;2023-12-04T03:01:17;-0.80;99.90
23562;DHT22;11959;49.418;8.728;2023-12-04T03:03:43;-0.80;99.90
23562;DHT22;11959;49.418;8.728;2023-12-04T03:06:09;-0.80;99.90
23562;DHT22;11959;49.418;8.728;2023-12-04T03:08:34;-0.70;99.90
23562;DHT22;11959;49.418;8.728;2023-12-04T03:11:01;-0.80;99.90
23562;DHT22;11959;49.418;8.728;2023-12-04T03:13:28;-0.70;99.90
23562;DHT22;11959;49.418;8.728;2023-12-04T03:15:54;-0.70;99.90
23562;DHT22;11959;49.418;8.728;2023-12-04T03:18:19;-0.70;99.90
23562;DHT22;11959;49.418;8.728;2023-12-04T03:20:45;-0.70;99.90
23562;DHT22;11959;49.418;8.728;2023-12-04T03:23:10;-0.60;99.90
23562;DHT22;11959;49.418;8.728;2023-12-04T03:25:36;-0.60;99.90
23562;DHT22;11959;49.418;8.728;2023-12-04T03:28:02;-0.60;99.90
23562;DHT22;11959;49.418;8.728;2023-12-04T03:30:27;-0.60;99.90
23562;DHT22;11959;49.418;8.728;2023-12-04T03:32:54;-0.60;99.90
23562;DHT22;11959;49.418;8.728;2023-12-04T03:35:19;-0.60;99.90
23562;DHT22;11959;49.418;8.728;2023-12-04T03:37:45;-0.60;99.90
23562;DHT22;11959;49.418;8.728;2023-12-04T03:40:12;-0.60;99.90
23562;DHT22;11959;49.418;8.728;2023-12-04T03:42:37;-0.60;99.90
23562;DHT22;11959;49.418;8.728;2023-12-04T03:45:04;-0.60;99.90
23562;DHT22;11959;49.418;8.728;2023-12-04T03:47:29;-0.50;99.90
23562;DHT22;11959;49.418;8.728;2023-12-04T03:49:55;-0.50;99.90
23562;DHT22;11959;49.418;8.728;2023-12-04T03:52:21;-0.40;99.90
23562;DHT22;11959;49.418;8.728;2023-12-04T03:54:46;-0.40;99.90
23562;DHT22;11959;49.418;8.728;2023-12-04T03:57:12;-0.40;99.90
23562;DHT22;11959;49.418;8.728;2023-12-04T03:59:38;-0.40;99.90
23562;DHT22;11959;49.418;8.728;2023-12-04T04:02:03;-0.40;99.90
23562;DHT22;11959;49.418;8.728;2023-12-04T04:04:29;-0.30;99.90
23562;DHT22;11959;49.418;8.728;2023-12-04T04:06:55;-0.40;99.90
23562;DHT22;11959;49.418;8.728;2023-12-04T04:09:20;-0.40;99.90
23562;DHT22;11959;49.418;8.728;2023-12-04T04:11:46;-0.40;99.90
23562;DHT22;11959;49.418;8.728;2023-12-04T04:14:12;-0.30;99.90
23562;DHT22;11959;49.418;8.728;2023-12-04T04:16:37;-0.30;99.90
23562;DHT22;11959;49.418;8.728;2023-12-04T04:19:03;-0.40;99.90
23562;DHT22;11959;49.418;8.728;2023-12-04T04:21:29;-0.40;99.90
23562;DHT22;11959;49.418;8.728;2023-12-04T04:23:54;-0.50;99.90
23562;DHT22;11959;49.418;8.728;2023-12-04T04:26:20;-0.50;99.90
23562;DHT22;11959;49.418;8.728;2023-12-04T04:28:46;-0.50;99.90
23562;DHT22;11959;49.418;8.728;2023-12-04T04:31:11;-0.40;99.90
23562;DHT22;11959;49.418;8.728;2023-12-04T04:33:37;-0.40;99.90
23562;DHT22;11959;49.418;8.728;2023-12-04T04:36:03;-0.30;99.90
23562;DHT22;11959;49.418;8.728;2023-12-04T04:38:29;-0.30;99.90
23562;DHT22;11959;49.418;8.728;2023-12-04T04:40:54;-0.30;99.90
23562;DHT22;11959;49.418;8.728;2023-12-04T04:43:20;-0.30;99.90
23562;DHT22;11959;49.418;8.728;2023-12-04T04:45:46;-0.30;99.90
23562;DHT22;11959;49.418;8.728;2023-12-04T04:48:12;-0.30;99.90
23562;DHT22;11959;49.418;8.728;2023-12-04T04:50:37;-0.40;99.90
23562;DHT22;11959;49.418;8.728;2023-12-04T04:53:03;-0.30;99.90
23562;DHT22;11959;49.418;8.728;2023-12-04T04:55:29;-0.30;99.90
23562;DHT22;11959;49.418;8.728;2023-12-04T04:57:55;-0.30;99.90
23562;DHT22;11959;49.418;8.728;2023-12-04T05:00:21;-0.30;99.90
23562;DHT22;11959;49.418;8.728;2023-12-04T05:02:47;-0.40;99.90
23562;DHT22;11959;49.418;8.728;2023-12-04T05:05:12;-0.40;99.90
23562;DHT22;11959;49.418;8.728;2023-12-04T05:07:38;-0.40;99.90
23562;DHT22;11959;49.418;8.728;2023-12-04T05:10:04;-0.40;99.90
23562;DHT22;11959;49.418;8.728;2023-12-04T05:12:29;-0.40;99.90
23562;DHT22;11959;49.418;8.728;2023-12-04T05:14:55;-0.40;99.90
23562;DHT22;11959;49.418;8.728;2023-12-04T05:17:21;-0.40;99.90
23562;DHT22;11959;49.418;8.728;2023-12-04T05:19:46;-0.40;99.90
23562;DHT22;11959;49.418;8.728;2023-12-04T05:22:12;-0.40;99.90
23562;DHT22;11959;49.418;8.728;2023-12-04T05:24:37;-0.40;99.90
23562;DHT22;11959;49.418;8.728;2023-12-04T05:27:03;-0.50;99.90
23562;DHT22;11959;49.418;8.728;2023-12-04T05:29:29;-0.50;99.90
23562;DHT22;11959;49.418;8.728;2023-12-04T05:31:55;-0.50;99.90
23562;DHT22;11959;49.418;8.728;2023-12-04T05:34:23;-0.60;99.90
23562;DHT22;11959;49.418;8.728;2023-12-04T05:36:48;-0.50;99.90
23562;DHT22;11959;49.418;8.728;2023-12-04T05:39:14;-0.60;99.90
23562;DHT22;11959;49.418;8.728;2023-12-04T05:41:39;-0.60;99.90
23562;DHT22;11959;49.418;8.728;2023-12-04T05:44:05;-0.50;99.90
23562;DHT22;11959;49.418;8.728;2023-12-04T05:46:31;-0.50;99.90
23562;DHT22;11959;49.418;8.728;2023-12-04T05:48:57;-0.50;99.90
23562;DHT22;11959;49.418;8.728;2023-12-04T05:51:23;-0.50;99.90
23562;DHT22;11959;49.418;8.728;2023-12-04T05:53:49;-0.50;99.90
23562;DHT22;11959;49.418;8.728;2023-12-04T05:56:14;-0.60;99.90
23562;DHT22;11959;49.418;8.728;2023-12-04T05:58:40;-0.60;99.90
23562;DHT22;11959;49.418;8.728;2023-12-04T06:01:06;-0.60;99.90
23562;DHT22;11959;49.418;8.728;2023-12-04T06:03:32;-0.60;99.90
23562;DHT22;11959;49.418;8.728;2023-12-04T06:05:58;-0.60;99.90
23562;DHT22;11959;49.418;8.728;2023-12-04T06:08:23;-0.50;99.90
23562;DHT22;11959;49.418;8.728;2023-12-04T06:10:49;-0.50;99.90
23562;DHT22;11959;49.418;8.728;2023-12-04T06:13:15;-0.60;99.90
23562;DHT22;11959;49.418;8.728;2023-12-04T06:15:41;-0.60;99.90
23562;DHT22;11959;49.418;8.728;2023-12-04T06:18:06;-0.60;99.90
23562;DHT22;11959;49.418;8.728;2023-12-04T06:20:32;-0.60;99.90
23562;DHT22;11959;49.418;8.728;2023-12-04T06:22:58;-0.60;99.90
23562;DHT22;11959;49.418;8.728;2023-12-04T06:25:25;-0.60;99.90
23562;DHT22;11959;49.418;8.728;2023-12-04T06:27:51;-0.60;99.90
23562;DHT22;11959;49.418;8.728;2023-12-04T06:30:17;-0.60;99.90
23562;DHT22;11959;49.418;8.728;2023-12-04T06:32:43;-0.50;99.90
23562;DHT22;11959;49.418;8.728;2023-12-04T06:35:09;-0.50;99.90
23562;DHT22;11959;49.418;8.728;2023-12-04T06:37:38;-0.60;99.90
23562;DHT22;11959;49.418;8.728;2023-12-04T06:40:05;-0.60;99.90
23562;DHT22;11959;49.418;8.728;2023-12-04T06:42:37;-0.60;99.90
23562;DHT22;11959;49.418;8.728;2023-12-04T06:45:03;-0.60;99.90
23562;DHT22;11959;49.418;8.728;2023-12-04T06:47:31;-0.70;99.90
23562;DHT22;11959;49.418;8.728;2023-12-04T06:49:57;-0.70;99.90
23562;DHT22;11959;49.418;8.728;2023-12-04T06:52:22;-0.60;99.90
23562;DHT22;11959;49.418;8.728;2023-12-04T06:54:48;-0.60;99.90
23562;DHT22;11959;49.418;8.728;2023-12-04T06:57:13;-0.50;99.90
23562;DHT22;11959;49.418;8.728;2023-12-04T06:59:41;-0.50;99.90
23562;DHT22;11959;49.418;8.728;2023-12-04T07:02:07;-0.40;99.90
23562;DHT22;11959;49.418;8.728;2023-12-04T07:04:33;-0.40;99.90
23562;DHT22;11959;49.418;8.728;2023-12-04T07:06:58;-0.30;99.90
23562;DHT22;11959;49.418;8.728;2023-12-04T07:09:30;-0.20;99.90
23562;DHT22;11959;49.418;8.728;2023-12-04T07:11:56;-0.20;99.90
23562;DHT22;11959;49.418;8.728;2023-12-04T07:14:22;-0.10;99.90
23562;DHT22;11959;49.418;8.728;2023-12-04T07:16:47;-0.10;99.90
23562;DHT22;11959;49.418;8.728;2023-12-04T07:19:13;-0.10;99.90
23562;DHT22;11959;49.418;8.728;2023-12-04T07:21:40;0.00;99.90
23562;DHT22;11959;49.418;8.728;2023-12-04T07:24:06;0.00;99.90
23562;DHT22;11959;49.418;8.728;2023-12-04T07:26:33;0.00;99.90
23562;DHT22;11959;49.418;8.728;2023-12-04T07:28:59;0.00;99.90
23562;DHT22;11959;49.418;8.728;2023-12-04T07:31:25;0.00;99.90
23562;DHT22;11959;49.418;8.728;2023-12-04T07:33:53;0.00;99.90
23562;DHT22;11959;49.418;8.728;2023-12-04T07:36:19;0.00;99.90
23562;DHT22;11959;49.418;8.728;2023-12-04T07:38:45;0.00;99.90
23562;DHT22;11959;49.418;8.728;2023-12-04T07:41:11;0.00;99.90
23562;DHT22;11959;49.418;8.728;2023-12-04T07:43:36;0.00;99.90
23562;DHT22;11959;49.418;8.728;2023-12-04T07:46:02;0.00;99.90
23562;DHT22;11959;49.418;8.728;2023-12-04T07:48:29;0.00;99.90
23562;DHT22;11959;49.418;8.728;2023-12-04T07:50:55;-0.10;99.90
23562;DHT22;11959;49.418;8.728;2023-12-04T07:53:21;0.00;99.90
23562;DHT22;11959;49.418;8.728;2023-12-04T07:55:50;0.00;99.90
23562;DHT22;11959;49.418;8.728;2023-12-04T07:58:17;0.00;99.90
23562;DHT22;11959;49.418;8.728;2023-12-04T08:00:44;0.10;99.90
23562;DHT22;11959;49.418;8.728;2023-12-04T08:03:09;0.20;99.90
23562;DHT22;11959;49.418;8.728;2023-12-04T08:05:35;0.20;99.90
23562;DHT22;11959;49.418;8.728;2023-12-04T08:08:01;0.20;99.90
23562;DHT22;11959;49.418;8.728;2023-12-04T08:10:27;0.20;99.90
23562;DHT22;11959;49.418;8.728;2023-12-04T08:12:52;0.20;99.90
23562;DHT22;11959;49.418;8.728;2023-12-04T08:15:18;0.30;99.90
23562;DHT22;11959;49.418;8.728;2023-12-04T08:17:44;0.30;99.90
23562;DHT22;11959;49.418;8.728;2023-12-04T08:20:10;0.30;99.90
23562;DHT22;11959;49.418;8.728;2023-12-04T08:22:42;0.40;99.90
23562;DHT22;11959;49.418;8.728;2023-12-04T08:25:10;0.40;99.90
23562;DHT22;11959;49.418;8.728;2023-12-04T08:27:36;0.40;99.90
23562;DHT22;11959;49.418;8.728;2023-12-04T08:30:04;0.40;99.90
23562;DHT22;11959;49.418;8.728;2023-12-04T08:32:29;0.40;99.90
23562;DHT22;11959;49.418;8.728;2023-12-04T08:34:55;0.50;99.90
23562;DHT22;11959;49.418;8.728;2023-12-04T08:37:21;0.50;99.90
23562;DHT22;11959;49.418;8.728;2023-12-04T08:39:47;0.50;99.90
23562;DHT22;11959;49.418;8.728;2023-12-04T08:42:12;0.50;99.90
23562;DHT22;11959;49.418;8.728;2023-12-04T08:44:38;0.60;99.90
23562;DHT22;11959;49.418;8.728;2023-12-04T08:47:04;0.70;99.90
23562;DHT22;11959;49.418;8.728;2023-12-04T08:49:30;0.70;99.90
23562;DHT22;11959;49.418;8.728;2023-12-04T08:51:56;0.70;99.90
23562;DHT22;11959;49.418;8.728;2023-12-04T08:54:23;0.80;99.90
23562;DHT22;11959;49.418;8.728;2023-12-04T08:56:48;0.80;99.90
23562;DHT22;11959;49.418;8.728;2023-12-04T08:59:14;0.90;99.90
23562;DHT22;11959;49.418;8.728;2023-12-04T09:01:39;0.90;99.90
23562;DHT22;11959;49.418;8.728;2023-12-04T09:04:05;0.90;99.90
23562;DHT22;11959;49.418;8.728;2023-12-04T09:06:32;0.90;99.90
23562;DHT22;11959;49.418;8.728;2023-12-04T09:08:58;1.00;99.90
23562;DHT22;11959;49.418;8.728;2023-12-04T09:11:23;1.00;99.90
23562;DHT22;11959;49.418;8.728;2023-12-04T09:13:49;1.10;99.90
23562;DHT22;11959;49.418;8.728;2023-12-04T09:16:15;1.10;99.90
23562;DHT22;11959;49.418;8.728;2023-12-04T09:18:40;1.00;99.90
23562;DHT22;11959;49.418;8.728;2023-12-04T09:21:06;1.10;99.90
23562;DHT22;11959;49.418;8.728;2023-12-04T09:23:39;1.10;99.90
23562;DHT22;11959;49.418;8.728;2023-12-04T09:26:05;1.10;99.90
23562;DHT22;11959;49.418;8.728;2023-12-04T09:28:33;1.10;99.90
23562;DHT22;11959;49.418;8.728;2023-12-04T09:30:58;1.10;99.90
23562;DHT22;11959;49.418;8.728;2023-12-04T09:33:24;1.10;99.90
23562;DHT22;11959;49.418;8.728;2023-12-04T09:35:50;1.10;99.90
23562;DHT22;11959;49.418;8.728;2023-12-04T09:38:15;1.10;99.90
23562;DHT22;11959;49.418;8.728;2023-12-04T09:40:42;1.10;99.90
23562;DHT22;11959;49.418;8.728;2023-12-04T09:43:07;1.20;99.90
23562;DHT22;11959;49.418;8.728;2023-12-04T09:45:34;1.20;99.90
23562;DHT22;11959;49.418;8.728;2023-12-04T09:48:00;1.20;99.90
23562;DHT22;11959;49.418;8.728;2023-12-04T09:50:25;1.30;99.90
23562;DHT22;11959;49.418;8.728;2023-12-04T09:52:52;1.30;99.90
23562;DHT22;11959;49.418;8.728;2023-12-04T09:55:18;1.30;99.90
23562;DHT22;11959;49.418;8.728;2023-12-04T09:57:45;1.20;99.90
23562;DHT22;11959;49.418;8.728;2023-12-04T10:00:13;1.20;99.90
23562;DHT22;11959;49.418;8.728;2023-12-04T10:02:40;1.20;99.90
23562;DHT22;11959;49.418;8.728;2023-12-04T10:05:06;1.30;99.90
23562;DHT22;11959;49.418;8.728;2023-12-04T10:07:33;1.30;99.90
23562;DHT22;11959;49.418;8.728;2023-12-04T10:09:58;1.20;99.90
23562;DHT22;11959;49.418;8.728;2023-12-04T10:12:25;1.30;99.90
23562;DHT22;11959;49.418;8.728;2023-12-04T10:15:05;1.30;99.90
23562;DHT22;11959;49.418;8.728;2023-12-04T10:17:37;1.30;99.90
23562;DHT22;11959;49.418;8.728;2023-12-04T10:20:08;1.30;99.90
23562;DHT22;11959;49.418;8.728;2023-12-04T10:22:53;1.30;99.90
23562;DHT22;11959;49.418;8.728;2023-12-04T10:25:20;1.40;99.90
23562;DHT22;11959;49.418;8.728;2023-12-04T10:27:46;1.30;99.90
23562;DHT22;11959;49.418;8.728;2023-12-04T10:30:28;1.40;99.90
23562;DHT22;11959;49.418;8.728;2023-12-04T10:33:01;1.40;99.90
23562;DHT22;11959;49.418;8.728;2023-12-04T10:35:34;1.40;99.90
23562;DHT22;11959;49.418;8.728;2023-12-04T10:38:03;1.30;99.90
23562;DHT22;11959;49.418;8.728;2023-12-04T10:40:34;1.30;99.90
23562;DHT22;11959;49.418;8.728;2023-12-04T10:43:22;1.30;99.90
23562;DHT22;11959;49.418;8.728;2023-12-04T10:45:50;1.30;99.90
23562;DHT22;11959;49.418;8.728;2023-12-04T10:48:18;1.30;99.90
23562;DHT22;11959;49.418;8.728;2023-12-04T10:50:48;1.30;99.90
23562;DHT22;11959;49.418;8.728;2023-12-04T10:53:15;1.30;99.90
23562;DHT22;11959;49.418;8.728;2023-12-04T10:55:42;1.30;99.90
23562;DHT22;11959;49.418;8.728;2023-12-04T10:58:15;1.40;99.90
23562;DHT22;11959;49.418;8.728;2023-12-04T11:00:45;1.40;99.90
23562;DHT22;11959;49.418;8.728;2023-12-04T11:03:21;1.40;99.90
23562;DHT22;11959;49.418;8.728;2023-12-04T11:05:55;1.40;99.90
23562;DHT22;11959;49.418;8.728;2023-12-04T11:08:23;1.40;99.90
23562;DHT22;11959;49.418;8.728;2023-12-04T11:10:57;1.40;99.90
23562;DHT22;11959;49.418;8.728;2023-12-04T11:13:27;1.30;99.90
23562;DHT22;11959;49.418;8.728;2023-12-04T11:16:09;1.20;99.90
23562;DHT22;11959;49.418;8.728;2023-12-04T11:18:38;1.00;99.90
23562;DHT22;11959;49.418;8.728;2023-12-04T11:21:08;0.90;99.90
23562;DHT22;11959;49.418;8.728;2023-12-04T11:23:34;0.80;99.90
23562;DHT22;11959;49.418;8.728;2023-12-04T11:26:01;0.70;99.90
23562;DHT22;11959;49.418;8.728;2023-12-04T11:28:29;0.70;99.90
23562;DHT22;11959;49.418;8.728;2023-12-04T11:30:55;0.60;99.90
23562;DHT22;11959;49.418;8.728;2023-12-04T11:33:21;0.60;99.90
23562;DHT22;11959;49.418;8.728;2023-12-04T11:35:49;0.50;99.90
23562;DHT22;11959;49.418;8.728;2023-12-04T11:38:17;0.50;99.90
23562;DHT22;11959;49.418;8.728;2023-12-04T11:40:42;0.40;99.90
23562;DHT22;11959;49.418;8.728;2023-12-04T11:43:24;0.40;99.90
23562;DHT22;11959;49.418;8.728;2023-12-04T11:45:50;0.30;99.90
23562;DHT22;11959;49.418;8.728;2023-12-04T11:48:16;0.30;99.90
23562;DHT22;11959;49.418;8.728;2023-12-04T11:50:43;0.20;99.90
23562;DHT22;11959;49.418;8.728;2023-12-04T11:53:11;0.30;99.90
23562;DHT22;11959;49.418;8.728;2023-12-04T11:55:40;0.20;99.90
23562;DHT22;11959;49.418;8.728;2023-12-04T11:58:11;0.30;99.90
23562;DHT22;11959;49.418;8.728;2023-12-04T12:00:37;0.30;99.90
23562;DHT22;11959;49.418;8.728;2023-12-04T12:03:07;0.30;99.90
23562;DHT22;11959;49.418;8.728;2023-12-04T12:05:35;0.30;99.90
23562;DHT22;11959;49.418;8.728;2023-12-04T12:08:04;0.30;99.90
23562;DHT22;11959;49.418;8.728;2023-12-04T12:10:31;0.30;99.90
23562;DHT22;11959;49.418;8.728;2023-12-04T12:12:57;0.30;99.90
23562;DHT22;11959;49.418;8.728;2023-12-04T12:15:24;0.30;99.90
23562;DHT22;11959;49.418;8.728;2023-12-04T12:17:50;0.30;99.90
23562;DHT22;11959;49.418;8.728;2023-12-04T12:20:17;0.30;99.90
23562;DHT22;11959;49.418;8.728;2023-12-04T12:22:43;0.40;99.90
23562;DHT22;11959;49.418;8.728;2023-12-04T12:25:10;0.30;99.90
23562;DHT22;11959;49.418;8.728;2023-12-04T12:27:37;0.30;99.90
23562;DHT22;11959;49.418;8.728;2023-12-04T12:30:03;0.30;99.90
23562;DHT22;11959;49.418;8.728;2023-12-04T12:32:31;0.40;99.90
23562;DHT22;11959;49.418;8.728;2023-12-04T12:34:56;0.40;99.90
23562;DHT22;11959;49.418;8.728;2023-12-04T12:37:22;0.40;99.90
23562;DHT22;11959;49.418;8.728;2023-12-04T12:39:48;0.40;99.90
23562;DHT22;11959;49.418;8.728;2023-12-04T12:42:28;0.40;99.90
23562;DHT22;11959;49.418;8.728;2023-12-04T12:44:54;0.40;99.90
23562;DHT22;11959;49.418;8.728;2023-12-04T12:47:23;0.40;99.90
23562;DHT22;11959;49.418;8.728;2023-12-04T12:49:49;0.30;99.90
23562;DHT22;11959;49.418;8.728;2023-12-04T12:52:15;0.40;99.90
23562;DHT22;11959;49.418;8.728;2023-12-04T12:54:41;0.40;99.90
23562;DHT22;11959;49.418;8.728;2023-12-04T12:57:08;0.40;99.90
23562;DHT22;11959;49.418;8.728;2023-12-04T12:59:34;0.40;99.90
23562;DHT22;11959;49.418;8.728;2023-12-04T13:02:00;0.50;99.90
23562;DHT22;11959;49.418;8.728;2023-12-04T13:04:33;0.40;99.90
23562;DHT22;11959;49.418;8.728;2023-12-04T13:06:59;0.40;99.90
23562;DHT22;11959;49.418;8.728;2023-12-04T13:09:24;0.40;99.90
23562;DHT22;11959;49.418;8.728;2023-12-04T13:11:50;0.50;99.90
23562;DHT22;11959;49.418;8.728;2023-12-04T13:14:17;0.50;99.90
23562;DHT22;11959;49.418;8.728;2023-12-04T13:16:42;0.60;99.90
23562;DHT22;11959;49.418;8.728;2023-12-04T13:19:08;0.60;99.90
23562;DHT22;11959;49.418;8.728;2023-12-04T13:21:34;0.60;99.90
23562;DHT22;11959;49.418;8.728;2023-12-04T13:24:00;0.70;99.90
23562;DHT22;11959;49.418;8.728;2023-12-04T13:26:25;0.70;99.90
23562;DHT22;11959;49.418;8.728;2023-12-04T13:28:51;0.80;99.90
23562;DHT22;11959;49.418;8.728;2023-12-04T13:31:17;0.80;99.90
23562;DHT22;11959;49.418;8.728;2023-12-04T13:33:42;0.90;99.90
23562;DHT22;11959;49.418;8.728;2023-12-04T13:36:11;0.90;99.90
23562;DHT22;11959;49.418;8.728;2023-12-04T13:38:37;0.90;99.90
23562;DHT22;11959;49.418;8.728;2023-12-04T13:41:03;1.00;99.90
23562;DHT22;11959;49.418;8.728;2023-12-04T13:43:54;1.00;99.90
23562;DHT22;11959;49.418;8.728;2023-12-04T13:46:21;1.00;99.90
23562;DHT22;11959;49.418;8.728;2023-12-04T13:48:48;1.00;99.90
23562;DHT22;11959;49.418;8.728;2023-12-04T13:51:14;0.90;99.90
23562;DHT22;11959;49.418;8.728;2023-12-04T13:53:40;0.90;99.90
23562;DHT22;11959;49.418;8.728;2023-12-04T13:56:10;0.90;99.90
23562;DHT22;11959;49.418;8.728;2023-12-04T13:58:48;0.80;99.90
23562;DHT22;11959;49.418;8.728;2023-12-04T14:01:24;0.90;99.90
23562;DHT22;11959;49.418;8.728;2023-12-04T14:03:54;0.80;99.90
23562;DHT22;11959;49.418;8.728;2023-12-04T14:06:20;0.80;99.90
23562;DHT22;11959;49.418;8.728;2023-12-04T14:08:45;0.90;99.90
23562;DHT22;11959;49.418;8.728;2023-12-04T14:11:12;0.80;99.90
23562;DHT22;11959;49.418;8.728;2023-12-04T14:13:39;0.80;99.90
23562;DHT22;11959;49.418;8.728;2023-12-04T14:16:05;0.80;99.90
23562;DHT22;11959;49.418;8.728;2023-12-04T14:18:31;0.80;99.90
23562;DHT22;11959;49.418;8.728;2023-12-04T14:20:57;0.80;99.90
23562;DHT22;11959;49.418;8.728;2023-12-04T14:23:23;0.90;99.90
23562;DHT22;11959;49.418;8.728;2023-12-04T14:25:49;0.90;99.90
23562;DHT22;11959;49.418;8.728;2023-12-04T14:28:14;0.80;99.90
23562;DHT22;11959;49.418;8.728;2023-12-04T14:30:40;0.90;99.90
23562;DHT22;11959;49.418;8.728;2023-12-04T14:33:06;0.90;99.90
23562;DHT22;11959;49.418;8.728;2023-12-04T14:35:32;0.90;99.90
23562;DHT22;11959;49.418;8.728;2023-12-04T14:37:58;0.90;99.90
23562;DHT22;11959;49.418;8.728;2023-12-04T14:40:24;1.00;99.90
23562;DHT22;11959;49.418;8.728;2023-12-04T14:42:50;0.90;99.90
23562;DHT22;11959;49.418;8.728;2023-12-04T14:45:16;1.00;99.90
23562;DHT22;11959;49.418;8.728;2023-12-04T14:47:42;1.00;99.90
23562;DHT22;11959;49.418;8.728;2023-12-04T14:50:08;1.00;99.90
23562;DHT22;11959;49.418;8.728;2023-12-04T14:52:35;1.00;99.90
23562;DHT22;11959;49.418;8.728;2023-12-04T14:55:04;1.00;99.90
23562;DHT22;11959;49.418;8.728;2023-12-04T14:57:36;1.00;99.90
23562;DHT22;11959;49.418;8.728;2023-12-04T15:00:05;1.00;99.90
23562;DHT22;11959;49.418;8.728;2023-12-04T15:02:50;1.00;99.90
23562;DHT22;11959;49.418;8.728;2023-12-04T15:05:37;1.10;99.90
23562;DHT22;11959;49.418;8.728;2023-12-04T15:08:21;1.20;99.90
23562;DHT22;11959;49.418;8.728;2023-12-04T15:10:50;1.20;99.90
23562;DHT22;11959;49.418;8.728;2023-12-04T15:13:21;1.30;99.90
23562;DHT22;11959;49.418;8.728;2023-12-04T15:16:06;1.30;99.90
23562;DHT22;11959;49.418;8.728;2023-12-04T15:18:38;1.40;99.90
23562;DHT22;11959;49.418;8.728;2023-12-04T15:21:38;1.40;99.90
23562;DHT22;11959;49.418;8.728;2023-12-04T15:24:06;1.40;99.90
23562;DHT22;11959;49.418;8.728;2023-12-04T15:26:32;1.50;99.90
23562;DHT22;11959;49.418;8.728;2023-12-04T15:28:58;1.50;99.90
23562;DHT22;11959;49.418;8.728;2023-12-04T15:31:24;1.60;99.90
23562;DHT22;11959;49.418;8.728;2023-12-04T15:33:49;1.60;99.90
23562;DHT22;11959;49.418;8.728;2023-12-04T15:36:15;1.60;99.90
23562;DHT22;11959;49.418;8.728;2023-12-04T15:38:41;1.60;99.90